sensor_id;sensor_type;location;lat;lon;timestamp;pressure;altitude;pressure_sealevel;temperature;humidity
70952;BME280;69214;55.880;37.542;2023-07-29T00:01:13;97904.44;;;14.52;82.96
70952;BME280;69214;55.880;37.542;2023-07-29T00:03:39;97916.25;;;14.52;83.32
70952;BME280;69214;55.880;37.542;2023-07-29T00:06:05;97908.91;;;14.48;83.28
70952;BME280;69214;55.880;37.542;2023-07-29T00:08:30;97912.16;;;14.50;83.35
70952;BME280;69214;55.880;37.542;2023-07-29T00:10:56;97921.97;;;14.56;83.17
70952;BME280;69214;55.880;37.542;2023-07-29T00:13:22;97909.06;;;14.56;83.36
70952;BME280;69214;55.880;37.542;2023-07-29T00:15:48;97890.22;;;14.50;82.55
70952;BME280;69214;55.880;37.542;2023-07-29T00:18:14;97895.91;;;14.53;82.34
70952;BME280;69214;55.880;37.542;2023-07-29T00:20:39;97890.28;;;14.45;82.79
70952;BME280;69214;55.880;37.542;2023-07-29T00:23:05;97893.25;;;14.48;82.89
70952;BME280;69214;55.880;37.542;2023-07-29T00:25:31;97897.69;;;14.44;83.26
70952;BME280;69214;55.880;37.542;2023-07-29T00:27:57;97905.09;;;14.44;83.39
70952;BME280;69214;55.880;37.542;2023-07-29T00:30:24;97874.56;;;14.26;82.82
70952;BME280;69214;55.880;37.542;2023-07-29T00:32:50;97903.50;;;14.38;83.08
70952;BME280;69214;55.880;37.542;2023-07-29T00:35:15;97901.88;;;14.37;83.02
70952;BME280;69214;55.880;37.542;2023-07-29T00:37:41;97902.94;;;14.41;83.39
70952;BME280;69214;55.880;37.542;2023-07-29T00:40:20;97889.56;;;14.34;82.49
70952;BME280;69214;55.880;37.542;2023-07-29T00:42:48;97906.97;;;14.48;83.33
70952;BME280;69214;55.880;37.542;2023-07-29T00:45:15;97908.38;;;14.46;83.45
70952;BME280;69214;55.880;37.542;2023-07-29T00:47:41;97912.47;;;14.48;83.31
70952;BME280;69214;55.880;37.542;2023-07-29T00:50:10;97914.63;;;14.51;83.15
70952;BME280;69214;55.880;37.542;2023-07-29T00:52:37;97909.13;;;14.51;83.26
70952;BME280;69214;55.880;37.542;2023-07-29T00:55:04;97906.16;;;14.48;83.03
70952;BME280;69214;55.880;37.542;2023-07-29T00:57:30;97901.72;;;14.52;83.19
70952;BME280;69214;55.880;37.542;2023-07-29T00:59:56;97907.19;;;14.52;82.78
70952;BME280;69214;55.880;37.542;2023-07-29T01:02:22;97896.50;;;14.50;82.80
70952;BME280;69214;55.880;37.542;2023-07-29T01:04:58;97892.22;;;14.44;82.60
70952;BME280;69214;55.880;37.542;2023-07-29T01:13:10;97893.84;;;14.45;83.12
70952;BME280;69214;55.880;37.542;2023-07-29T01:15:52;97898.22;;;14.46;83.00
70952;BME280;69214;55.880;37.542;2023-07-29T01:18:26;97888.56;;;14.49;82.38
70952;BME280;69214;55.880;37.542;2023-07-29T01:20:57;97885.31;;;14.47;82.53
70952;BME280;69214;55.880;37.542;2023-07-29T01:23:25;97876.56;;;14.45;82.30
70952;BME280;69214;55.880;37.542;2023-07-29T01:25:51;97872.09;;;14.49;82.17
70952;BME280;69214;55.880;37.542;2023-07-29T01:28:17;97858.75;;;14.42;82.41
70952;BME280;69214;55.880;37.542;2023-07-29T01:30:44;97867.03;;;14.37;82.51
70952;BME280;69214;55.880;37.542;2023-07-29T01:33:16;97883.44;;;14.42;82.58
70952;BME280;69214;55.880;37.542;2023-07-29T01:35:50;97870.88;;;14.36;82.24
70952;BME280;69214;55.880;37.542;2023-07-29T01:38:27;97869.47;;;14.39;82.73
70952;BME280;69214;55.880;37.542;2023-07-29T01:40:58;97856.13;;;14.32;82.48
70952;BME280;69214;55.880;37.542;2023-07-29T01:43:24;97861.84;;;14.36;82.68
70952;BME280;69214;55.880;37.542;2023-07-29T01:45:52;97844.41;;;14.26;83.21
70952;BME280;69214;55.880;37.542;2023-07-29T01:48:18;97851.75;;;14.31;83.46
70952;BME280;69214;55.880;37.542;2023-07-29T01:50:44;97849.38;;;14.24;83.11
70952;BME280;69214;55.880;37.542;2023-07-29T01:53:10;97847.13;;;14.26;83.51
70952;BME280;69214;55.880;37.542;2023-07-29T01:55:38;97835.66;;;14.24;83.92
70952;BME280;69214;55.880;37.542;2023-07-29T01:58:04;97833.25;;;14.18;83.45
70952;BME280;69214;55.880;37.542;2023-07-29T02:00:30;97838.38;;;14.24;83.90
70952;BME280;69214;55.880;37.542;2023-07-29T02:02:56;97830.44;;;14.23;84.18
70952;BME280;69214;55.880;37.542;2023-07-29T02:05:22;97848.25;;;14.25;83.00
70952;BME280;69214;55.880;37.542;2023-07-29T02:07:48;97849.38;;;14.24;83.72
70952;BME280;69214;55.880;37.542;2023-07-29T02:10:14;97846.63;;;14.24;83.20
70952;BME280;69214;55.880;37.542;2023-07-29T02:12:40;97851.81;;;14.26;83.05
70952;BME280;69214;55.880;37.542;2023-07-29T02:15:06;97845.50;;;14.25;83.19
70952;BME280;69214;55.880;37.542;2023-07-29T02:17:33;97842.59;;;14.17;83.49
70952;BME280;69214;55.880;37.542;2023-07-29T02:19:58;97857.59;;;14.24;83.06
70952;BME280;69214;55.880;37.542;2023-07-29T02:22:25;97856.19;;;14.27;83.10
70952;BME280;69214;55.880;37.542;2023-07-29T02:24:51;97852.75;;;14.16;83.93
70952;BME280;69214;55.880;37.542;2023-07-29T02:27:17;97873.09;;;14.34;83.71
70952;BME280;69214;55.880;37.542;2023-07-29T02:29:43;97882.66;;;14.37;83.44
70952;BME280;69214;55.880;37.542;2023-07-29T02:32:09;97886.53;;;14.36;83.58
70952;BME280;69214;55.880;37.542;2023-07-29T02:34:34;97885.13;;;14.38;83.72
70952;BME280;69214;55.880;37.542;2023-07-29T02:37:00;97886.75;;;14.39;83.27
70952;BME280;69214;55.880;37.542;2023-07-29T02:39:26;97885.91;;;14.44;84.13
70952;BME280;69214;55.880;37.542;2023-07-29T02:41:52;97884.25;;;14.43;83.24
70952;BME280;69214;55.880;37.542;2023-07-29T02:44:18;97891.09;;;14.45;83.61
70952;BME280;69214;55.880;37.542;2023-07-29T02:46:46;97889.16;;;14.46;83.53
70952;BME280;69214;55.880;37.542;2023-07-29T02:49:12;97871.66;;;14.42;83.57
70952;BME280;69214;55.880;37.542;2023-07-29T02:51:38;97882.03;;;14.45;83.99
70952;BME280;69214;55.880;37.542;2023-07-29T02:54:04;97873.50;;;14.46;84.21
70952;BME280;69214;55.880;37.542;2023-07-29T02:56:30;97869.66;;;14.47;83.81
70952;BME280;69214;55.880;37.542;2023-07-29T02:58:57;97852.44;;;14.42;84.01
70952;BME280;69214;55.880;37.542;2023-07-29T03:01:23;97835.38;;;14.45;83.66
70952;BME280;69214;55.880;37.542;2023-07-29T03:03:51;97852.53;;;14.55;83.90
70952;BME280;69214;55.880;37.542;2023-07-29T03:06:17;97835.00;;;14.51;83.34
70952;BME280;69214;55.880;37.542;2023-07-29T03:08:43;97855.72;;;14.63;83.67
70952;BME280;69214;55.880;37.542;2023-07-29T03:11:10;97861.94;;;14.68;83.06
70952;BME280;69214;55.880;37.542;2023-07-29T03:13:36;97866.84;;;14.71;83.06
70952;BME280;69214;55.880;37.542;2023-07-29T03:16:16;97869.22;;;14.78;83.23
70952;BME280;69214;55.880;37.542;2023-07-29T03:18:49;97875.13;;;14.85;82.93
70952;BME280;69214;55.880;37.542;2023-07-29T03:21:15;97876.41;;;14.93;83.39
70952;BME280;69214;55.880;37.542;2023-07-29T03:23:41;97865.09;;;14.94;82.83
70952;BME280;69214;55.880;37.542;2023-07-29T03:26:07;97846.47;;;14.91;82.59
70952;BME280;69214;55.880;37.542;2023-07-29T03:28:39;97861.00;;;15.10;82.48
70952;BME280;69214;55.880;37.542;2023-07-29T03:31:05;97841.63;;;15.02;81.85
70952;BME280;69214;55.880;37.542;2023-07-29T03:33:32;97861.22;;;15.14;82.20
70952;BME280;69214;55.880;37.542;2023-07-29T03:35:58;97860.91;;;15.15;82.10
70952;BME280;69214;55.880;37.542;2023-07-29T03:38:24;97845.31;;;15.11;82.25
70952;BME280;69214;55.880;37.542;2023-07-29T03:40:50;97847.25;;;15.10;82.22
70952;BME280;69214;55.880;37.542;2023-07-29T03:43:16;97843.69;;;15.10;82.15
70952;BME280;69214;55.880;37.542;2023-07-29T03:45:42;97844.00;;;15.08;82.24
70952;BME280;69214;55.880;37.542;2023-07-29T03:48:08;97844.28;;;15.07;82.13
70952;BME280;69214;55.880;37.542;2023-07-29T03:50:36;97839.69;;;15.02;82.42
70952;BME280;69214;55.880;37.542;2023-07-29T03:53:03;97836.53;;;14.95;82.61
70952;BME280;69214;55.880;37.542;2023-07-29T03:55:29;97835.94;;;14.98;82.34
70952;BME280;69214;55.880;37.542;2023-07-29T03:57:56;97828.81;;;14.97;82.70
70952;BME280;69214;55.880;37.542;2023-07-29T04:00:23;97823.09;;;14.94;82.79
70952;BME280;69214;55.880;37.542;2023-07-29T04:02:49;97810.47;;;14.93;82.73
70952;BME280;69214;55.880;37.542;2023-07-29T04:05:15;97816.47;;;14.95;82.66
70952;BME280;69214;55.880;37.542;2023-07-29T04:07:41;97795.19;;;14.86;82.71
70952;BME280;69214;55.880;37.542;2023-07-29T04:10:07;97807.94;;;14.96;83.51
70952;BME280;69214;55.880;37.542;2023-07-29T04:12:33;97791.34;;;14.87;82.98
70952;BME280;69214;55.880;37.542;2023-07-29T04:14:59;97809.69;;;15.06;82.51
70952;BME280;69214;55.880;37.542;2023-07-29T04:17:26;97798.50;;;15.02;82.63
70952;BME280;69214;55.880;37.542;2023-07-29T04:19:52;97806.94;;;15.06;82.40
70952;BME280;69214;55.880;37.542;2023-07-29T04:22:20;97809.19;;;15.04;82.61
70952;BME280;69214;55.880;37.542;2023-07-29T04:24:46;97806.44;;;15.04;82.57
70952;BME280;69214;55.880;37.542;2023-07-29T04:27:12;97818.44;;;15.08;82.38
70952;BME280;69214;55.880;37.542;2023-07-29T04:29:38;97816.81;;;15.07;82.47
70952;BME280;69214;55.880;37.542;2023-07-29T04:32:05;97802.84;;;14.89;82.37
70952;BME280;69214;55.880;37.542;2023-07-29T04:34:31;97818.03;;;15.01;82.57
70952;BME280;69214;55.880;37.542;2023-07-29T04:37:00;97825.16;;;15.02;82.21
70952;BME280;69214;55.880;37.542;2023-07-29T04:39:26;97822.09;;;15.03;82.33
70952;BME280;69214;55.880;37.542;2023-07-29T04:41:52;97817.44;;;15.04;82.28
70952;BME280;69214;55.880;37.542;2023-07-29T04:44:18;97827.00;;;15.06;82.28
70952;BME280;69214;55.880;37.542;2023-07-29T04:46:44;97806.13;;;15.05;81.90
70952;BME280;69214;55.880;37.542;2023-07-29T04:49:10;97809.09;;;15.09;82.63
70952;BME280;69214;55.880;37.542;2023-07-29T04:51:36;97817.94;;;15.06;82.08
70952;BME280;69214;55.880;37.542;2023-07-29T04:54:02;97790.34;;;14.97;82.15
70952;BME280;69214;55.880;37.542;2023-07-29T04:56:28;97797.16;;;15.00;82.52
70952;BME280;69214;55.880;37.542;2023-07-29T04:58:54;97812.44;;;15.06;81.76
70952;BME280;69214;55.880;37.542;2023-07-29T05:01:20;97797.91;;;15.05;82.20
70952;BME280;69214;55.880;37.542;2023-07-29T05:03:46;97797.91;;;15.05;81.90
70952;BME280;69214;55.880;37.542;2023-07-29T05:06:12;97801.97;;;15.08;82.45
70952;BME280;69214;55.880;37.542;2023-07-29T05:08:38;97789.03;;;15.08;82.43
70952;BME280;69214;55.880;37.542;2023-07-29T05:11:04;97785.41;;;15.13;82.46
70952;BME280;69214;55.880;37.542;2023-07-29T05:13:30;97804.44;;;15.23;82.47
70952;BME280;69214;55.880;37.542;2023-07-29T05:15:56;97791.72;;;15.27;82.14
70952;BME280;69214;55.880;37.542;2023-07-29T05:18:22;97769.22;;;15.25;81.96
70952;BME280;69214;55.880;37.542;2023-07-29T05:20:49;97785.53;;;15.35;82.16
70952;BME280;69214;55.880;37.542;2023-07-29T05:23:15;97780.03;;;15.35;81.56
70952;BME280;69214;55.880;37.542;2023-07-29T05:25:41;97788.28;;;15.49;82.30
70952;BME280;69214;55.880;37.542;2023-07-29T05:28:07;97764.88;;;15.51;81.34
70952;BME280;69214;55.880;37.542;2023-07-29T05:30:34;97753.38;;;15.49;81.30
70952;BME280;69214;55.880;37.542;2023-07-29T05:33:04;97766.50;;;15.66;81.52
70952;BME280;69214;55.880;37.542;2023-07-29T05:35:30;97764.56;;;15.80;80.86
70952;BME280;69214;55.880;37.542;2023-07-29T05:37:56;97768.72;;;15.92;80.61
70952;BME280;69214;55.880;37.542;2023-07-29T05:40:22;97748.22;;;15.98;80.41
70952;BME280;69214;55.880;37.542;2023-07-29T05:42:48;97762.03;;;16.20;79.69
70952;BME280;69214;55.880;37.542;2023-07-29T05:45:14;97754.34;;;16.31;79.45
70952;BME280;69214;55.880;37.542;2023-07-29T05:47:41;97765.00;;;16.46;78.96
70952;BME280;69214;55.880;37.542;2023-07-29T05:50:07;97761.69;;;16.58;78.57
70952;BME280;69214;55.880;37.542;2023-07-29T05:52:34;97746.81;;;16.59;77.99
70952;BME280;69214;55.880;37.542;2023-07-29T05:55:00;97764.72;;;16.70;77.68
70952;BME280;69214;55.880;37.542;2023-07-29T05:57:27;97769.63;;;16.73;77.69
70952;BME280;69214;55.880;37.542;2023-07-29T05:59:53;97771.25;;;16.74;77.37
70952;BME280;69214;55.880;37.542;2023-07-29T06:02:19;97779.00;;;16.72;77.65
70952;BME280;69214;55.880;37.542;2023-07-29T06:04:45;97784.31;;;16.68;77.59
70952;BME280;69214;55.880;37.542;2023-07-29T06:07:11;97766.56;;;16.61;77.55
70952;BME280;69214;55.880;37.542;2023-07-29T06:09:36;97785.97;;;16.69;77.65
70952;BME280;69214;55.880;37.542;2023-07-29T06:12:02;97790.84;;;16.72;77.49
70952;BME280;69214;55.880;37.542;2023-07-29T06:14:28;97798.97;;;16.77;77.63
70952;BME280;69214;55.880;37.542;2023-07-29T06:16:54;97783.81;;;16.66;77.61
70952;BME280;69214;55.880;37.542;2023-07-29T06:19:20;97800.22;;;16.71;77.47
70952;BME280;69214;55.880;37.542;2023-07-29T06:21:46;97807.56;;;16.76;77.29
70952;BME280;69214;55.880;37.542;2023-07-29T06:24:12;97819.38;;;16.76;77.22
70952;BME280;69214;55.880;37.542;2023-07-29T06:26:38;97822.84;;;16.82;77.40
70952;BME280;69214;55.880;37.542;2023-07-29T06:29:04;97814.63;;;16.91;77.58
70952;BME280;69214;55.880;37.542;2023-07-29T06:31:30;97821.16;;;16.95;76.79
70952;BME280;69214;55.880;37.542;2023-07-29T06:33:58;97819.88;;;17.01;76.81
70952;BME280;69214;55.880;37.542;2023-07-29T06:36:24;97813.13;;;17.07;76.75
70952;BME280;69214;55.880;37.542;2023-07-29T06:38:50;97784.63;;;16.89;76.25
70952;BME280;69214;55.880;37.542;2023-07-29T06:41:16;97831.53;;;17.20;76.46
70952;BME280;69214;55.880;37.542;2023-07-29T06:43:42;97832.53;;;17.24;76.26
70952;BME280;69214;55.880;37.542;2023-07-29T06:46:08;97834.22;;;17.34;76.17
70952;BME280;69214;55.880;37.542;2023-07-29T06:48:34;97818.34;;;17.39;75.58
70952;BME280;69214;55.880;37.542;2023-07-29T06:51:00;97829.97;;;17.59;75.47
70952;BME280;69214;55.880;37.542;2023-07-29T06:53:28;97839.13;;;17.68;74.88
70952;BME280;69214;55.880;37.542;2023-07-29T06:55:54;97832.47;;;17.69;74.85
70952;BME280;69214;55.880;37.542;2023-07-29T06:58:21;97838.47;;;17.71;74.90
70952;BME280;69214;55.880;37.542;2023-07-29T07:00:47;97843.38;;;17.74;74.78
70952;BME280;69214;55.880;37.542;2023-07-29T07:03:13;97848.00;;;17.65;74.81
70952;BME280;69214;55.880;37.542;2023-07-29T07:05:39;97837.25;;;17.55;75.15
70952;BME280;69214;55.880;37.542;2023-07-29T07:08:05;97842.06;;;17.49;75.60
70952;BME280;69214;55.880;37.542;2023-07-29T07:10:32;97846.41;;;17.41;75.83
70952;BME280;69214;55.880;37.542;2023-07-29T07:12:59;97857.25;;;17.38;75.83
70952;BME280;69214;55.880;37.542;2023-07-29T07:15:25;97857.88;;;17.35;75.79
70952;BME280;69214;55.880;37.542;2023-07-29T07:17:51;97869.56;;;17.32;75.89
70952;BME280;69214;55.880;37.542;2023-07-29T07:20:17;97856.47;;;17.15;75.60
70952;BME280;69214;55.880;37.542;2023-07-29T07:22:43;97862.09;;;17.10;76.24
70952;BME280;69214;55.880;37.542;2023-07-29T07:25:09;97843.19;;;16.95;76.72
70952;BME280;69214;55.880;37.542;2023-07-29T07:27:36;97864.78;;;17.01;76.72
70952;BME280;69214;55.880;37.542;2023-07-29T07:30:02;97862.66;;;16.98;76.69
70952;BME280;69214;55.880;37.542;2023-07-29T07:32:30;97843.25;;;16.81;76.94
70952;BME280;69214;55.880;37.542;2023-07-29T07:34:59;97858.84;;;16.86;76.90
70952;BME280;69214;55.880;37.542;2023-07-29T07:37:25;97846.03;;;16.67;77.59
70952;BME280;69214;55.880;37.542;2023-07-29T07:39:51;97852.88;;;16.70;77.36
70952;BME280;69214;55.880;37.542;2023-07-29T07:42:17;97850.63;;;16.72;77.54
70952;BME280;69214;55.880;37.542;2023-07-29T07:44:42;97850.44;;;16.68;77.85
70952;BME280;69214;55.880;37.542;2023-07-29T07:47:08;97859.69;;;16.72;77.92
70952;BME280;69214;55.880;37.542;2023-07-29T07:49:34;97840.31;;;16.64;77.63
70952;BME280;69214;55.880;37.542;2023-07-29T07:52:00;97844.63;;;16.70;77.82
70952;BME280;69214;55.880;37.542;2023-07-29T07:54:26;97849.19;;;16.74;77.70
70952;BME280;69214;55.880;37.542;2023-07-29T07:56:51;97848.69;;;16.72;77.63
70952;BME280;69214;55.880;37.542;2023-07-29T07:59:17;97856.31;;;16.75;77.97
70952;BME280;69214;55.880;37.542;2023-07-29T08:01:43;97837.34;;;16.74;77.35
70952;BME280;69214;55.880;37.542;2023-07-29T08:04:09;97847.31;;;16.83;77.88
70952;BME280;69214;55.880;37.542;2023-07-29T08:06:35;97842.69;;;16.93;78.32
70952;BME280;69214;55.880;37.542;2023-07-29T08:09:02;97845.00;;;16.99;77.68
70952;BME280;69214;55.880;37.542;2023-07-29T08:11:28;97841.50;;;17.07;77.41
70952;BME280;69214;55.880;37.542;2023-07-29T08:13:54;97857.97;;;17.21;77.60
70952;BME280;69214;55.880;37.542;2023-07-29T08:16:20;97855.13;;;17.35;77.24
70952;BME280;69214;55.880;37.542;2023-07-29T08:18:45;97848.50;;;17.36;77.08
70952;BME280;69214;55.880;37.542;2023-07-29T08:21:12;97848.22;;;17.46;77.52
70952;BME280;69214;55.880;37.542;2023-07-29T08:23:38;97851.34;;;17.53;76.93
70952;BME280;69214;55.880;37.542;2023-07-29T08:26:05;97847.09;;;17.47;76.65
70952;BME280;69214;55.880;37.542;2023-07-29T08:28:36;97855.59;;;17.59;76.19
70952;BME280;69214;55.880;37.542;2023-07-29T08:31:02;97859.97;;;17.60;76.15
70952;BME280;69214;55.880;37.542;2023-07-29T08:33:29;97838.19;;;17.50;75.75
70952;BME280;69214;55.880;37.542;2023-07-29T08:35:55;97805.94;;;17.28;75.56
70952;BME280;69214;55.880;37.542;2023-07-29T08:38:21;97861.28;;;17.63;76.41
70952;BME280;69214;55.880;37.542;2023-07-29T08:40:56;97879.72;;;17.76;75.65
70952;BME280;69214;55.880;37.542;2023-07-29T08:43:29;97874.44;;;17.88;75.18
70952;BME280;69214;55.880;37.542;2023-07-29T08:46:00;97854.75;;;17.81;74.77
70952;BME280;69214;55.880;37.542;2023-07-29T08:48:42;97874.16;;;18.07;74.96
70952;BME280;69214;55.880;37.542;2023-07-29T08:51:10;97853.59;;;18.22;73.56
70952;BME280;69214;55.880;37.542;2023-07-29T08:53:37;97798.69;;;18.11;72.35
70952;BME280;69214;55.880;37.542;2023-07-29T08:56:03;97839.34;;;18.45;73.24
70952;BME280;69214;55.880;37.542;2023-07-29T08:58:31;97844.53;;;18.47;72.37
70952;BME280;69214;55.880;37.542;2023-07-29T09:00:57;97864.72;;;18.56;71.59
70952;BME280;69214;55.880;37.542;2023-07-29T09:03:23;97860.78;;;18.40;72.25
70952;BME280;69214;55.880;37.542;2023-07-29T09:05:50;97786.72;;;17.76;72.32
70952;BME280;69214;55.880;37.542;2023-07-29T09:08:17;97862.47;;;18.01;73.00
70952;BME280;69214;55.880;37.542;2023-07-29T09:10:43;97856.34;;;17.73;74.02
70952;BME280;69214;55.880;37.542;2023-07-29T09:13:09;97845.66;;;17.49;74.34
70952;BME280;69214;55.880;37.542;2023-07-29T09:15:36;97846.19;;;17.29;74.81
70952;BME280;69214;55.880;37.542;2023-07-29T09:18:17;97854.22;;;17.17;75.15
70952;BME280;69214;55.880;37.542;2023-07-29T09:20:43;97851.41;;;17.08;75.91
70952;BME280;69214;55.880;37.542;2023-07-29T09:23:10;97858.91;;;17.16;75.22
70952;BME280;69214;55.880;37.542;2023-07-29T09:25:37;97837.94;;;17.07;75.61
70952;BME280;69214;55.880;37.542;2023-07-29T09:28:17;97871.00;;;17.29;75.09
70952;BME280;69214;55.880;37.542;2023-07-29T09:30:45;97864.34;;;17.30;75.24
70952;BME280;69214;55.880;37.542;2023-07-29T09:33:11;97860.59;;;17.26;75.54
70952;BME280;69214;55.880;37.542;2023-07-29T09:35:38;97866.75;;;17.23;75.26
70952;BME280;69214;55.880;37.542;2023-07-29T09:38:05;97874.00;;;17.19;75.71
70952;BME280;69214;55.880;37.542;2023-07-29T09:40:38;97872.06;;;17.20;76.09
70952;BME280;69214;55.880;37.542;2023-07-29T09:43:05;97883.09;;;17.20;76.41
70952;BME280;69214;55.880;37.542;2023-07-29T09:45:34;97877.75;;;17.23;75.98
70952;BME280;69214;55.880;37.542;2023-07-29T09:48:01;97871.13;;;17.24;76.16
70952;BME280;69214;55.880;37.542;2023-07-29T09:50:28;97870.19;;;17.29;76.09
70952;BME280;69214;55.880;37.542;2023-07-29T09:52:55;97890.53;;;17.41;76.90
70952;BME280;69214;55.880;37.542;2023-07-29T09:55:22;97881.94;;;17.43;76.13
70952;BME280;69214;55.880;37.542;2023-07-29T09:57:57;97879.31;;;17.38;75.91
70952;BME280;69214;55.880;37.542;2023-07-29T10:00:28;97884.16;;;17.32;75.76
70952;BME280;69214;55.880;37.542;2023-07-29T10:02:55;97885.41;;;17.26;75.79
70952;BME280;69214;55.880;37.542;2023-07-29T10:05:25;97883.09;;;17.20;75.68
70952;BME280;69214;55.880;37.542;2023-07-29T10:07:51;97882.91;;;17.16;75.81
70952;BME280;69214;55.880;37.542;2023-07-29T10:10:17;97883.16;;;17.06;76.45
70952;BME280;69214;55.880;37.542;2023-07-29T10:12:43;97868.38;;;17.02;75.78
70952;BME280;69214;55.880;37.542;2023-07-29T10:15:09;97869.94;;;17.16;76.36
70952;BME280;69214;55.880;37.542;2023-07-29T10:17:37;97879.94;;;17.35;76.71
70952;BME280;69214;55.880;37.542;2023-07-29T10:20:04;97871.34;;;17.59;76.14
70952;BME280;69214;55.880;37.542;2023-07-29T10:22:37;97883.22;;;17.99;75.08
70952;BME280;69214;55.880;37.542;2023-07-29T10:25:24;97883.97;;;18.22;73.68
70952;BME280;69214;55.880;37.542;2023-07-29T10:28:00;97886.56;;;18.27;73.84
70952;BME280;69214;55.880;37.542;2023-07-29T10:30:30;97892.75;;;18.24;72.86
70952;BME280;69214;55.880;37.542;2023-07-29T10:32:58;97893.69;;;18.19;73.58
70952;BME280;69214;55.880;37.542;2023-07-29T10:35:27;97876.75;;;18.03;72.79
70952;BME280;69214;55.880;37.542;2023-07-29T10:37:53;97887.78;;;18.03;73.76
70952;BME280;69214;55.880;37.542;2023-07-29T10:40:20;97889.91;;;18.06;74.26
70952;BME280;69214;55.880;37.542;2023-07-29T10:43:10;97900.19;;;18.15;74.39
70952;BME280;69214;55.880;37.542;2023-07-29T10:45:46;97894.19;;;18.21;74.10
70952;BME280;69214;55.880;37.542;2023-07-29T10:51:26;97899.56;;;18.26;73.85
70952;BME280;69214;55.880;37.542;2023-07-29T10:56:30;97884.44;;;18.15;73.84
70952;BME280;69214;55.880;37.542;2023-07-29T10:59:02;97895.19;;;18.25;73.19
70952;BME280;69214;55.880;37.542;2023-07-29T11:01:29;97880.25;;;18.26;72.99
70952;BME280;69214;55.880;37.542;2023-07-29T11:12:48;97890.84;;;18.41;73.01
70952;BME280;69214;55.880;37.542;2023-07-29T11:17:52;97889.22;;;18.49;71.27
70952;BME280;69214;55.880;37.542;2023-07-29T11:20:20;97884.69;;;18.44;71.13
70952;BME280;69214;55.880;37.542;2023-07-29T11:22:48;97840.09;;;18.11;72.08
70952;BME280;69214;55.880;37.542;2023-07-29T11:25:15;97869.53;;;18.33;71.76
70952;BME280;69214;55.880;37.542;2023-07-29T11:27:42;97860.78;;;18.40;71.23
70952;BME280;69214;55.880;37.542;2023-07-29T11:30:10;97879.38;;;18.65;71.34
70952;BME280;69214;55.880;37.542;2023-07-29T11:32:39;97835.94;;;18.40;71.52
70952;BME280;69214;55.880;37.542;2023-07-29T11:35:07;97889.63;;;18.91;70.74
70952;BME280;69214;55.880;37.542;2023-07-29T11:37:35;97876.94;;;18.81;69.79
70952;BME280;69214;55.880;37.542;2023-07-29T11:40:02;97769.44;;;18.10;70.17
70952;BME280;69214;55.880;37.542;2023-07-29T11:42:32;97886.06;;;18.82;70.70
70952;BME280;69214;55.880;37.542;2023-07-29T11:45:00;97831.38;;;18.53;70.00
70952;BME280;69214;55.880;37.542;2023-07-29T11:47:26;97861.03;;;18.78;69.94
70952;BME280;69214;55.880;37.542;2023-07-29T11:49:52;97892.09;;;19.01;69.68
70952;BME280;69214;55.880;37.542;2023-07-29T11:52:19;97917.94;;;19.05;69.83
70952;BME280;69214;55.880;37.542;2023-07-29T11:54:47;97919.25;;;19.07;70.26
70952;BME280;69214;55.880;37.542;2023-07-29T11:57:13;97910.13;;;18.98;70.01
70952;BME280;69214;55.880;37.542;2023-07-29T11:59:41;97917.13;;;19.04;70.47
70952;BME280;69214;55.880;37.542;2023-07-29T12:02:15;97921.84;;;19.13;71.32
70952;BME280;69214;55.880;37.542;2023-07-29T12:04:43;97925.75;;;19.20;70.03
70952;BME280;69214;55.880;37.542;2023-07-29T12:07:09;97924.63;;;19.21;70.30
70952;BME280;69214;55.880;37.542;2023-07-29T12:09:36;97921.34;;;19.28;69.01
70952;BME280;69214;55.880;37.542;2023-07-29T12:12:16;97933.38;;;19.32;70.60
70952;BME280;69214;55.880;37.542;2023-07-29T12:14:57;97893.72;;;19.02;69.66
70952;BME280;69214;55.880;37.542;2023-07-29T12:17:23;97934.53;;;19.31;68.94
70952;BME280;69214;55.880;37.542;2023-07-29T12:19:49;97882.00;;;18.96;69.43
70952;BME280;69214;55.880;37.542;2023-07-29T12:22:19;97924.94;;;19.20;69.96
70952;BME280;69214;55.880;37.542;2023-07-29T12:24:45;97923.97;;;19.16;69.41
70952;BME280;69214;55.880;37.542;2023-07-29T12:27:14;97930.94;;;19.22;70.04
70952;BME280;69214;55.880;37.542;2023-07-29T12:29:42;97919.09;;;19.21;68.47
70952;BME280;69214;55.880;37.542;2023-07-29T12:32:10;97926.22;;;19.14;68.33
70952;BME280;69214;55.880;37.542;2023-07-29T12:34:38;97916.47;;;19.07;69.47
70952;BME280;69214;55.880;37.542;2023-07-29T12:37:07;97913.38;;;19.09;69.14
70952;BME280;69214;55.880;37.542;2023-07-29T12:39:35;97887.53;;;19.14;68.69
70952;BME280;69214;55.880;37.542;2023-07-29T12:42:02;97912.88;;;19.41;68.01
70952;BME280;69214;55.880;37.542;2023-07-29T12:44:33;97915.16;;;19.48;68.37
70952;BME280;69214;55.880;37.542;2023-07-29T12:47:02;97897.41;;;19.40;66.86
70952;BME280;69214;55.880;37.542;2023-07-29T12:49:29;97909.13;;;19.46;66.36
70952;BME280;69214;55.880;37.542;2023-07-29T12:51:59;97919.38;;;19.46;66.93
70952;BME280;69214;55.880;37.542;2023-07-29T12:54:25;97913.53;;;19.38;65.74
70952;BME280;69214;55.880;37.542;2023-07-29T12:56:52;97903.78;;;19.24;65.40
70952;BME280;69214;55.880;37.542;2023-07-29T12:59:18;97912.56;;;19.26;66.15
70952;BME280;69214;55.880;37.542;2023-07-29T13:01:43;97915.16;;;19.31;65.82
70952;BME280;69214;55.880;37.542;2023-07-29T13:04:10;97904.91;;;19.31;66.17
70952;BME280;69214;55.880;37.542;2023-07-29T13:06:36;97907.19;;;19.38;65.83
70952;BME280;69214;55.880;37.542;2023-07-29T13:09:02;97885.88;;;19.21;65.50
70952;BME280;69214;55.880;37.542;2023-07-29T13:11:29;97881.34;;;19.08;65.51
70952;BME280;69214;55.880;37.542;2023-07-29T13:13:55;97897.28;;;19.02;66.47